createdAt,value
2019-03-24T00:01:24.750Z,6.50
2019-03-24T00:03:28.465Z,6.50
2019-03-24T00:05:32.876Z,6.40
2019-03-24T00:07:36.576Z,6.40
2019-03-24T00:09:40.323Z,6.40
2019-03-24T00:11:43.991Z,6.40
2019-03-24T00:13:47.770Z,6.30
2019-03-24T00:15:51.595Z,6.30
2019-03-24T00:17:55.324Z,6.30
2019-03-24T00:19:58.899Z,6.20
2019-03-24T00:22:02.659Z,6.20
2019-03-24T00:24:06.533Z,6.20
2019-03-24T00:26:10.197Z,6.10
2019-03-24T00:28:13.877Z,6.10
2019-03-24T00:30:17.808Z,6.20
2019-03-24T00:32:21.894Z,6.10
2019-03-24T00:34:25.669Z,6.10
2019-03-24T00:36:29.256Z,6.10
2019-03-24T00:38:32.971Z,6.10
2019-03-24T00:40:36.752Z,6.10
2019-03-24T00:42:40.387Z,6.00
2019-03-24T00:44:44.114Z,6.00
2019-03-24T00:46:47.921Z,6.00
2019-03-24T00:48:51.565Z,6.00
2019-03-24T00:50:55.348Z,5.90
2019-03-24T00:52:59.116Z,6.00
2019-03-24T00:55:02.805Z,5.90
2019-03-24T00:57:06.520Z,5.90
2019-03-24T00:59:10.247Z,5.80
2019-03-24T01:01:13.969Z,5.80
2019-03-24T01:03:17.769Z,5.80
2019-03-24T01:05:21.672Z,5.70
2019-03-24T01:07:25.475Z,5.70
2019-03-24T01:09:29.244Z,5.70
2019-03-24T01:11:32.855Z,5.60
2019-03-24T01:13:36.607Z,5.60
2019-03-24T01:15:47.705Z,5.60
2019-03-24T01:17:45.633Z,5.50
2019-03-24T01:19:49.477Z,5.50
2019-03-24T01:21:53.205Z,5.50
2019-03-24T01:23:56.803Z,5.50
2019-03-24T01:26:00.575Z,5.50
2019-03-24T01:28:04.273Z,5.50
2019-03-24T01:30:08.511Z,5.50
2019-03-24T01:32:12.092Z,5.40
2019-03-24T01:34:15.764Z,5.40
2019-03-24T01:36:19.346Z,5.40
2019-03-24T01:38:22.921Z,5.40
2019-03-24T01:40:26.694Z,5.30
2019-03-24T01:42:30.277Z,5.30
2019-03-24T01:44:34.069Z,5.30
2019-03-24T01:46:37.742Z,5.20
2019-03-24T01:48:41.596Z,5.20
2019-03-24T01:50:45.300Z,5.20
2019-03-24T01:52:48.874Z,5.20
2019-03-24T01:54:52.598Z,5.20
2019-03-24T01:56:56.324Z,5.20
2019-03-24T01:58:59.897Z,5.10
2019-03-24T02:01:03.684Z,5.10
2019-03-24T02:03:07.302Z,5.10
2019-03-24T02:05:11.225Z,5.10
2019-03-24T02:07:14.872Z,5.10
2019-03-24T02:09:18.567Z,5.00
2019-03-24T02:11:22.344Z,5.00
2019-03-24T02:13:25.927Z,5.00
2019-03-24T02:15:29.567Z,4.90
2019-03-24T02:17:33.234Z,4.90
2019-03-24T02:19:36.906Z,4.90
2019-03-24T02:21:40.741Z,4.90
2019-03-24T02:23:44.408Z,4.80
2019-03-24T02:25:48.126Z,4.80
2019-03-24T02:27:51.793Z,4.80
2019-03-24T02:29:55.429Z,4.70
2019-03-24T02:31:59.155Z,4.70
2019-03-24T02:34:02.880Z,4.70
2019-03-24T02:36:06.683Z,4.60
2019-03-24T02:38:11.869Z,4.60
2019-03-24T02:40:15.744Z,4.60
2019-03-24T02:42:19.343Z,4.60
2019-03-24T02:44:23.233Z,4.60
2019-03-24T02:46:26.873Z,4.60
2019-03-24T02:48:30.456Z,4.60
2019-03-24T02:50:34.183Z,4.60
2019-03-24T02:52:37.858Z,4.50
2019-03-24T02:54:41.565Z,4.50
2019-03-24T02:56:45.293Z,4.50
2019-03-24T02:58:49.083Z,4.50
2019-03-24T03:00:52.834Z,4.40
2019-03-24T03:02:56.542Z,4.40
2019-03-24T03:05:00.560Z,4.40
2019-03-24T03:07:04.390Z,4.40
2019-03-24T03:09:08.142Z,4.30
2019-03-24T03:11:11.861Z,4.30
2019-03-24T03:13:15.517Z,4.20
2019-03-24T03:15:19.290Z,4.20
2019-03-24T03:17:23.096Z,4.20
2019-03-24T03:19:26.751Z,4.10
2019-03-24T03:21:30.383Z,4.10
2019-03-24T03:23:34.046Z,4.10
2019-03-24T03:25:37.633Z,4.10
2019-03-24T03:27:41.352Z,4.10
2019-03-24T03:29:45.018Z,4.10
2019-03-24T03:31:48.643Z,4.10
2019-03-24T03:33:52.401Z,4.00
2019-03-24T03:35:56.059Z,4.00
2019-03-24T03:37:59.756Z,4.00
2019-03-24T03:40:05.121Z,4.00
2019-03-24T03:42:09.003Z,4.00
2019-03-24T03:44:12.612Z,4.00
2019-03-24T03:46:16.285Z,3.90
2019-03-24T03:48:19.917Z,3.90
2019-03-24T03:50:23.503Z,3.90
2019-03-24T03:52:27.207Z,3.90
2019-03-24T03:54:30.847Z,3.90
2019-03-24T03:56:34.511Z,3.90
2019-03-24T03:58:38.233Z,3.80
2019-03-24T04:00:41.859Z,3.80
2019-03-24T04:02:45.587Z,3.80
2019-03-24T04:04:49.179Z,3.80
2019-03-24T04:06:52.884Z,3.70
2019-03-24T04:08:56.598Z,3.70
2019-03-24T04:11:02.604Z,3.70
2019-03-24T04:13:06.302Z,3.70
2019-03-24T04:15:10.326Z,3.70
2019-03-24T04:17:14.006Z,3.70
2019-03-24T04:19:17.610Z,3.70
2019-03-24T04:21:21.328Z,3.60
2019-03-24T04:23:25.126Z,3.60
2019-03-24T04:25:28.838Z,3.60
2019-03-24T04:27:32.633Z,3.60
2019-03-24T04:29:36.232Z,3.50
2019-03-24T04:31:39.987Z,3.50
2019-03-24T04:33:46.066Z,3.40
2019-03-24T04:35:49.773Z,3.40
2019-03-24T04:37:53.596Z,3.40
2019-03-24T04:39:57.320Z,3.40
2019-03-24T04:42:00.965Z,3.40
2019-03-24T04:44:04.750Z,3.40
2019-03-24T04:46:08.349Z,3.40
2019-03-24T04:48:12.011Z,3.30
2019-03-24T04:50:15.794Z,3.30
2019-03-24T04:52:19.443Z,3.20
2019-03-24T04:54:23.092Z,3.30
2019-03-24T04:56:26.824Z,3.20
2019-03-24T04:58:30.491Z,3.20
2019-03-24T05:00:36.229Z,3.20
2019-03-24T05:02:39.900Z,3.10
2019-03-24T05:04:43.685Z,3.10
2019-03-24T05:06:47.355Z,3.10
2019-03-24T05:08:51.090Z,3.10
2019-03-24T05:10:54.845Z,3.10
2019-03-24T05:12:58.562Z,3.00
2019-03-24T05:15:02.281Z,3.00
2019-03-24T05:17:06.056Z,3.00
2019-03-24T05:19:09.707Z,3.00
2019-03-24T05:21:13.361Z,3.00
2019-03-24T05:23:16.961Z,3.00
2019-03-24T05:25:20.664Z,3.00
2019-03-24T05:27:24.344Z,3.00
2019-03-24T05:29:28.046Z,3.00
2019-03-24T05:31:33.312Z,3.00
2019-03-24T05:33:37.067Z,3.00
2019-03-24T05:35:40.708Z,3.00
2019-03-24T05:37:44.394Z,3.00
2019-03-24T05:39:48.046Z,2.90
2019-03-24T05:41:51.702Z,3.00
2019-03-24T05:43:55.355Z,3.00
2019-03-24T05:45:58.997Z,3.00
2019-03-24T05:48:02.673Z,3.00
2019-03-24T05:50:07.960Z,3.00
2019-03-24T05:52:11.661Z,3.00
2019-03-24T05:54:15.327Z,3.00
2019-03-24T05:56:18.998Z,3.00
2019-03-24T05:58:22.575Z,3.00
2019-03-24T06:00:26.231Z,3.00
2019-03-24T06:02:29.972Z,3.00
2019-03-24T06:04:33.639Z,3.00
2019-03-24T06:06:37.376Z,3.00
2019-03-24T06:08:41.202Z,3.10
2019-03-24T06:10:44.836Z,3.10
2019-03-24T06:12:48.671Z,3.10
2019-03-24T06:14:52.357Z,3.20
2019-03-24T06:16:56.144Z,3.20
2019-03-24T06:18:59.838Z,3.20
2019-03-24T06:21:03.512Z,3.20
2019-03-24T06:23:07.278Z,3.30
2019-03-24T06:25:11.087Z,3.30
2019-03-24T06:27:14.805Z,3.40
2019-03-24T06:29:18.458Z,3.40
2019-03-24T06:31:22.096Z,3.50
2019-03-24T06:33:25.765Z,3.60
2019-03-24T06:35:29.538Z,3.60
2019-03-24T06:37:33.324Z,3.60
2019-03-24T06:39:36.979Z,3.70
2019-03-24T06:41:40.680Z,3.80
2019-03-24T06:43:44.278Z,3.80
2019-03-24T06:45:47.963Z,3.90
2019-03-24T06:47:57.884Z,3.90
2019-03-24T06:49:57.071Z,3.90
2019-03-24T06:52:00.872Z,4.00
2019-03-24T06:54:04.659Z,4.10
2019-03-24T06:56:08.401Z,4.10
2019-03-24T06:58:12.114Z,4.20
2019-03-24T07:00:16.237Z,4.30
2019-03-24T07:02:19.890Z,4.40
2019-03-24T07:04:23.545Z,4.50
2019-03-24T07:06:27.268Z,4.60
2019-03-24T07:08:30.996Z,4.70
2019-03-24T07:10:34.584Z,4.80
2019-03-24T07:12:38.509Z,4.90
2019-03-24T07:14:42.336Z,5.00
2019-03-24T07:16:47.000Z,5.10
2019-03-24T07:18:50.841Z,5.20
2019-03-24T07:20:54.592Z,5.40
2019-03-24T07:22:58.382Z,5.40
2019-03-24T07:25:02.123Z,5.60
2019-03-24T07:27:05.940Z,5.70
2019-03-24T07:29:09.706Z,5.80
2019-03-24T07:31:13.513Z,5.90
2019-03-24T07:33:17.314Z,6.10
2019-03-24T07:35:21.134Z,6.30
2019-03-24T07:37:24.765Z,6.50
2019-03-24T07:39:29.672Z,6.50
2019-03-24T07:41:33.486Z,6.70
2019-03-24T07:43:37.299Z,6.90
2019-03-24T07:45:41.258Z,7.20
2019-03-24T07:47:45.000Z,7.40
2019-03-24T07:49:48.854Z,7.50
2019-03-24T07:51:52.705Z,7.70
2019-03-24T07:53:56.605Z,7.90
2019-03-24T07:56:00.197Z,8.10
2019-03-24T07:58:03.962Z,8.30
2019-03-24T08:00:09.537Z,8.50
2019-03-24T08:02:13.226Z,8.70
2019-03-24T08:04:16.831Z,8.80
2019-03-24T08:06:20.627Z,9.00
2019-03-24T08:08:24.214Z,9.20
2019-03-24T08:10:27.935Z,9.30
2019-03-24T08:12:31.527Z,9.30
2019-03-24T08:14:35.224Z,9.30
2019-03-24T08:16:38.880Z,9.30
2019-03-24T08:18:42.694Z,9.40
2019-03-24T08:20:46.378Z,9.60
2019-03-24T08:22:51.936Z,9.70
2019-03-24T08:24:58.934Z,9.90
2019-03-24T08:27:02.616Z,10.10
2019-03-24T08:29:06.394Z,10.30
2019-03-24T08:31:10.036Z,10.40
2019-03-24T08:33:13.722Z,10.40
2019-03-24T08:35:17.433Z,10.50
2019-03-24T08:37:21.073Z,10.50
2019-03-24T08:39:24.855Z,10.60
2019-03-24T08:41:28.611Z,10.90
2019-03-24T08:43:32.277Z,11.20
2019-03-24T08:45:36.068Z,11.50
2019-03-24T08:47:39.806Z,11.80
2019-03-24T08:49:43.532Z,12.00
2019-03-24T08:51:51.489Z,12.20
2019-03-24T08:53:55.180Z,12.50
2019-03-24T08:55:58.982Z,12.60
2019-03-24T08:58:02.683Z,12.50
2019-03-24T09:00:07.145Z,12.50
2019-03-24T09:02:10.966Z,12.60
2019-03-24T09:04:14.624Z,12.70
2019-03-24T09:06:18.567Z,12.90
2019-03-24T09:08:22.331Z,13.00
2019-03-24T09:10:26.009Z,13.10
2019-03-24T09:12:31.258Z,13.30
2019-03-24T09:14:35.042Z,13.40
2019-03-24T09:16:38.930Z,13.50
2019-03-24T09:18:51.935Z,13.60
2019-03-24T09:20:48.408Z,13.60
2019-03-24T09:22:52.110Z,13.40
2019-03-24T09:24:56.584Z,13.30
2019-03-24T09:27:00.860Z,13.20
2019-03-24T09:29:04.691Z,13.20
2019-03-24T09:31:08.482Z,13.10
2019-03-24T09:33:12.547Z,13.10
2019-03-24T09:35:16.568Z,13.20
2019-03-24T09:37:20.690Z,13.20
2019-03-24T09:39:24.273Z,13.40
2019-03-24T09:41:30.512Z,13.70
2019-03-24T09:43:34.289Z,13.90
2019-03-24T09:45:38.136Z,14.10
2019-03-24T09:47:42.537Z,14.30
2019-03-24T09:49:46.998Z,14.60
2019-03-24T09:51:50.976Z,14.70
2019-03-24T09:53:54.701Z,14.80
2019-03-24T09:55:59.679Z,14.90
2019-03-24T09:58:03.529Z,15.00
2019-03-24T10:00:07.396Z,15.20
2019-03-24T10:02:11.192Z,15.40
2019-03-24T10:04:14.862Z,15.50
2019-03-24T10:06:19.014Z,15.70
2019-03-24T10:08:23.427Z,15.80
2019-03-24T10:10:27.113Z,15.90
2019-03-24T10:12:31.149Z,15.90
2019-03-24T10:14:34.993Z,16.00
2019-03-24T10:16:39.707Z,16.10
2019-03-24T10:18:43.466Z,16.10
2019-03-24T10:20:47.193Z,16.30
2019-03-24T10:22:50.989Z,16.40
2019-03-24T10:24:54.702Z,16.30
2019-03-24T10:26:58.386Z,16.40
2019-03-24T10:29:02.190Z,16.60
2019-03-24T10:31:05.919Z,16.80
2019-03-24T10:33:09.620Z,16.90
2019-03-24T10:35:13.364Z,16.80
2019-03-24T10:37:17.060Z,16.90
2019-03-24T10:39:20.793Z,16.90
2019-03-24T10:41:24.379Z,17.00
2019-03-24T10:43:28.223Z,17.00
2019-03-24T10:45:31.900Z,17.10
2019-03-24T10:47:35.672Z,17.10
2019-03-24T10:49:39.305Z,16.90
2019-03-24T10:51:42.957Z,17.00
2019-03-24T10:53:46.652Z,17.00
2019-03-24T10:55:50.334Z,17.10
2019-03-24T10:57:54.036Z,17.10
2019-03-24T10:59:57.711Z,17.20
2019-03-24T11:02:01.452Z,17.50
2019-03-24T11:04:05.237Z,17.80
2019-03-24T11:06:08.871Z,17.90
2019-03-24T11:08:12.711Z,17.90
2019-03-24T11:10:16.945Z,17.90
2019-03-24T11:12:20.745Z,18.10
2019-03-24T11:14:24.423Z,18.00
2019-03-24T11:16:28.038Z,18.00
2019-03-24T11:18:31.636Z,17.80
2019-03-24T11:20:35.538Z,17.80
2019-03-24T11:22:39.232Z,17.90
2019-03-24T11:24:43.112Z,17.90
2019-03-24T11:26:46.781Z,18.10
2019-03-24T11:28:52.379Z,18.30
2019-03-24T11:30:56.086Z,18.40
2019-03-24T11:33:00.117Z,18.50
2019-03-24T11:35:04.630Z,18.60
2019-03-24T11:37:08.222Z,18.80
2019-03-24T11:39:12.006Z,19.00
2019-03-24T11:41:17.325Z,19.20
2019-03-24T11:43:21.166Z,19.30
2019-03-24T11:45:24.889Z,19.40
2019-03-24T11:47:28.472Z,19.50
2019-03-24T11:49:32.294Z,19.50
2019-03-24T11:51:35.894Z,19.40
2019-03-24T11:53:39.854Z,19.20
2019-03-24T11:55:44.116Z,19.00
2019-03-24T11:57:48.921Z,18.80
2019-03-24T11:59:52.568Z,18.60
2019-03-24T12:01:56.368Z,18.30
2019-03-24T12:03:59.964Z,18.20
2019-03-24T12:06:13.684Z,18.00
2019-03-24T12:08:09.018Z,17.90
2019-03-24T12:10:13.056Z,17.90
2019-03-24T12:12:16.867Z,17.80
2019-03-24T12:14:22.707Z,17.70
2019-03-24T12:16:26.547Z,17.50
2019-03-24T12:18:30.252Z,17.50
2019-03-24T12:20:33.954Z,17.40
2019-03-24T12:22:39.158Z,17.40
2019-03-24T12:24:42.877Z,17.30
2019-03-24T12:26:46.681Z,17.20
2019-03-24T12:28:50.445Z,17.20
2019-03-24T12:30:54.077Z,17.30
2019-03-24T12:32:58.015Z,17.40
2019-03-24T12:35:01.778Z,17.40
2019-03-24T12:37:05.461Z,17.40
2019-03-24T12:39:09.481Z,17.50
2019-03-24T12:41:13.273Z,17.30
2019-03-24T12:43:19.811Z,17.10
2019-03-24T12:45:23.389Z,17.20
2019-03-24T12:47:27.437Z,17.30
2019-03-24T12:49:31.162Z,17.30
2019-03-24T12:51:34.879Z,17.30
2019-03-24T12:53:40.756Z,17.30
2019-03-24T12:55:44.943Z,17.10
2019-03-24T12:57:48.734Z,16.90
2019-03-24T12:59:52.563Z,16.90
2019-03-24T13:01:56.396Z,17.00
2019-03-24T13:04:00.360Z,17.00
2019-03-24T13:06:04.182Z,16.80
2019-03-24T13:08:15.063Z,16.80
2019-03-24T13:10:18.822Z,16.70
2019-03-24T13:12:22.493Z,16.80
2019-03-24T13:14:26.408Z,16.80
2019-03-24T13:16:30.116Z,16.50
2019-03-24T13:18:33.987Z,16.50
2019-03-24T13:20:38.676Z,16.60
2019-03-24T13:22:42.879Z,16.50
2019-03-24T13:24:46.613Z,16.60
2019-03-24T13:26:50.468Z,16.70
2019-03-24T13:28:54.091Z,16.80
2019-03-24T13:30:57.753Z,16.90
2019-03-24T13:33:01.572Z,16.90
2019-03-24T13:35:05.664Z,16.90
2019-03-24T13:37:09.280Z,16.90
2019-03-24T13:39:13.020Z,16.90
2019-03-24T13:41:16.830Z,16.90
2019-03-24T13:43:20.539Z,16.70
2019-03-24T13:45:24.594Z,16.70
2019-03-24T13:47:28.243Z,16.60
2019-03-24T13:49:31.983Z,16.40
2019-03-24T13:51:35.681Z,16.30
2019-03-24T13:53:39.376Z,16.20
2019-03-24T13:55:43.050Z,16.00
2019-03-24T13:57:46.704Z,15.90
2019-03-24T13:59:50.375Z,15.80
2019-03-24T14:01:54.052Z,15.70
2019-03-24T14:03:57.931Z,15.60
2019-03-24T14:06:01.492Z,15.50
2019-03-24T14:08:05.215Z,15.40
2019-03-24T14:10:09.000Z,15.30
2019-03-24T14:12:12.734Z,15.20
2019-03-24T14:14:16.345Z,15.20
2019-03-24T14:16:19.919Z,15.10
2019-03-24T14:18:23.580Z,15.00
2019-03-24T14:20:27.300Z,15.00
2019-03-24T14:22:31.084Z,14.90
2019-03-24T14:24:34.752Z,15.00
2019-03-24T14:26:38.558Z,15.00
2019-03-24T14:28:42.223Z,15.00
2019-03-24T14:30:47.176Z,15.00
2019-03-24T14:32:50.877Z,15.00
2019-03-24T14:34:54.563Z,15.00
2019-03-24T14:36:58.636Z,15.00
2019-03-24T14:39:02.540Z,15.00
2019-03-24T14:41:06.274Z,15.00
2019-03-24T14:43:10.101Z,15.00
2019-03-24T14:45:13.846Z,15.00
2019-03-24T14:47:17.628Z,14.90
2019-03-24T14:49:21.394Z,14.70
2019-03-24T14:51:25.034Z,14.50
2019-03-24T14:53:28.827Z,14.50
2019-03-24T14:55:32.691Z,14.60
2019-03-24T14:57:36.373Z,14.60
2019-03-24T14:59:40.218Z,14.70
2019-03-24T15:01:43.939Z,14.80
2019-03-24T15:03:49.972Z,14.80
2019-03-24T15:05:53.651Z,14.80
2019-03-24T15:07:57.274Z,14.70
2019-03-24T15:10:00.977Z,14.60
2019-03-24T15:12:04.753Z,14.60
2019-03-24T15:14:08.372Z,14.60
2019-03-24T15:16:12.942Z,14.50
2019-03-24T15:18:16.670Z,14.50
2019-03-24T15:20:20.506Z,14.40
2019-03-24T15:22:24.195Z,14.40
2019-03-24T15:24:28.639Z,14.40
2019-03-24T15:26:32.522Z,14.30
2019-03-24T15:28:36.524Z,14.30
2019-03-24T15:30:40.285Z,14.20
2019-03-24T15:32:44.023Z,14.20
2019-03-24T15:34:47.699Z,14.10
2019-03-24T15:36:51.408Z,14.00
2019-03-24T15:38:55.105Z,14.00
2019-03-24T15:41:03.488Z,13.90
2019-03-24T15:43:07.239Z,13.80
2019-03-24T15:45:11.046Z,13.70
2019-03-24T15:47:14.724Z,13.70
2019-03-24T15:49:18.973Z,13.60
2019-03-24T15:51:22.591Z,13.60
2019-03-24T15:53:26.164Z,13.60
2019-03-24T15:55:29.881Z,13.60
2019-03-24T15:57:33.563Z,13.60
2019-03-24T15:59:37.640Z,13.50
2019-03-24T16:01:41.437Z,13.50
2019-03-24T16:03:45.115Z,13.40
2019-03-24T16:05:49.090Z,13.30
2019-03-24T16:07:52.913Z,13.20
2019-03-24T16:09:56.605Z,13.20
2019-03-24T16:12:01.948Z,13.10
2019-03-24T16:14:05.604Z,13.00
2019-03-24T16:16:09.363Z,13.00
2019-03-24T16:18:13.132Z,13.00
2019-03-24T16:20:18.077Z,12.90
2019-03-24T16:22:33.178Z,12.80
2019-03-24T16:24:37.134Z,12.80
2019-03-24T16:26:40.788Z,12.70
2019-03-24T16:28:44.546Z,12.60
2019-03-24T16:30:48.242Z,12.60
2019-03-24T16:32:51.804Z,12.50
2019-03-24T16:34:55.458Z,12.40
2019-03-24T16:36:59.160Z,12.40
2019-03-24T16:39:03.726Z,12.20
2019-03-24T16:41:08.586Z,12.20
2019-03-24T16:43:13.937Z,12.10
2019-03-24T16:45:17.700Z,12.00
2019-03-24T16:47:21.395Z,11.90
2019-03-24T16:49:24.981Z,11.90
2019-03-24T16:51:38.171Z,11.90
2019-03-24T16:53:34.114Z,11.90
2019-03-24T16:55:37.953Z,11.80
2019-03-24T16:57:41.611Z,11.70
2019-03-24T16:59:45.441Z,11.70
2019-03-24T17:01:49.152Z,11.60
2019-03-24T17:03:52.797Z,11.60
2019-03-24T17:05:56.806Z,11.50
2019-03-24T17:08:00.969Z,11.50
2019-03-24T17:10:06.289Z,11.40
2019-03-24T17:12:10.190Z,11.40
2019-03-24T17:14:13.843Z,11.40
2019-03-24T17:16:17.568Z,11.40
2019-03-24T17:18:21.269Z,11.40
2019-03-24T17:20:27.498Z,11.40
2019-03-24T17:22:31.258Z,11.40
2019-03-24T17:24:34.915Z,11.40
2019-03-24T17:26:38.633Z,11.30
2019-03-24T17:28:44.234Z,11.30
2019-03-24T17:30:47.688Z,11.30
2019-03-24T17:32:51.469Z,11.30
2019-03-24T17:34:55.052Z,11.30
2019-03-24T17:36:58.764Z,11.30
2019-03-24T17:39:02.495Z,11.30
2019-03-24T17:41:06.317Z,11.30
2019-03-24T17:43:11.908Z,11.20
2019-03-24T17:45:15.854Z,11.20
2019-03-24T17:47:19.622Z,11.20
2019-03-24T17:49:23.505Z,11.20
2019-03-24T17:51:27.334Z,11.20
2019-03-24T17:53:30.988Z,11.20
2019-03-24T17:55:34.717Z,11.20
2019-03-24T17:57:38.510Z,11.20
2019-03-24T17:59:42.110Z,11.30
2019-03-24T18:01:45.825Z,11.30
2019-03-24T18:03:49.526Z,11.30
2019-03-24T18:05:53.174Z,11.30
2019-03-24T18:07:56.903Z,11.20
2019-03-24T18:10:00.604Z,11.20
2019-03-24T18:12:04.350Z,11.10
2019-03-24T18:14:08.087Z,11.10
2019-03-24T18:16:11.827Z,11.10
2019-03-24T18:18:15.577Z,11.00
2019-03-24T18:20:33.280Z,11.00
2019-03-24T18:22:37.074Z,11.00
2019-03-24T18:24:40.670Z,11.00
2019-03-24T18:26:44.409Z,10.90
2019-03-24T18:28:48.146Z,10.80
2019-03-24T18:30:51.788Z,10.80
2019-03-24T18:32:55.572Z,10.70
2019-03-24T18:34:59.157Z,10.70
2019-03-24T18:37:02.739Z,10.60
2019-03-24T18:39:08.145Z,10.60
2019-03-24T18:41:11.721Z,10.50
2019-03-24T18:43:15.476Z,10.50
2019-03-24T18:45:20.109Z,10.50
2019-03-24T18:47:24.053Z,10.40
2019-03-24T18:49:27.713Z,10.40
2019-03-24T18:51:31.351Z,10.30
2019-03-24T18:53:35.033Z,10.30
2019-03-24T18:55:38.747Z,10.30
2019-03-24T18:57:42.402Z,10.20
2019-03-24T18:59:46.021Z,10.20
2019-03-24T19:01:49.683Z,10.10
2019-03-24T19:03:53.469Z,10.00
2019-03-24T19:05:57.127Z,10.00
2019-03-24T19:08:01.501Z,10.00
2019-03-24T19:10:09.550Z,9.90
2019-03-24T19:12:13.142Z,9.90
2019-03-24T19:14:17.072Z,9.80
2019-03-24T19:16:20.640Z,9.80
2019-03-24T19:18:24.820Z,9.70
2019-03-24T19:20:28.578Z,9.60
2019-03-24T19:22:33.857Z,9.60
2019-03-24T19:24:38.430Z,9.50
2019-03-24T19:26:42.749Z,9.50
2019-03-24T19:28:46.429Z,9.40
2019-03-24T19:30:50.066Z,9.40
2019-03-24T19:32:53.623Z,9.40
2019-03-24T19:34:57.316Z,9.30
2019-03-24T19:37:01.418Z,9.20
2019-03-24T19:39:09.074Z,9.10
2019-03-24T19:41:12.664Z,9.10
2019-03-24T19:43:16.904Z,9.00
2019-03-24T19:45:20.679Z,8.90
2019-03-24T19:47:24.314Z,8.90
2019-03-24T19:49:27.935Z,8.90
2019-03-24T19:51:31.951Z,8.80
2019-03-24T19:53:36.029Z,8.80
2019-03-24T19:55:40.403Z,8.80
2019-03-24T19:57:44.079Z,8.70
2019-03-24T19:59:47.836Z,8.70
2019-03-24T20:01:51.849Z,8.60
2019-03-24T20:03:56.471Z,8.60
2019-03-24T20:06:00.104Z,8.60
2019-03-24T20:08:04.781Z,8.60
2019-03-24T20:10:08.659Z,8.50
2019-03-24T20:12:12.327Z,8.50
2019-03-24T20:14:16.067Z,8.40
2019-03-24T20:16:20.384Z,8.40
2019-03-24T20:18:24.516Z,8.30
2019-03-24T20:20:28.117Z,8.20
2019-03-24T20:22:32.513Z,8.20
2019-03-24T20:24:36.124Z,8.20
2019-03-24T20:26:39.824Z,8.10
2019-03-24T20:28:43.403Z,8.00
2019-03-24T20:30:47.016Z,8.00
2019-03-24T20:32:50.753Z,8.00
2019-03-24T20:34:54.408Z,8.00
2019-03-24T20:36:58.028Z,7.90
2019-03-24T20:39:01.773Z,7.90
2019-03-24T20:41:06.017Z,7.80
2019-03-24T20:43:09.749Z,7.70
2019-03-24T20:45:14.477Z,7.70
2019-03-24T20:47:18.175Z,7.60
2019-03-24T20:49:21.750Z,7.60
2019-03-24T20:51:27.080Z,7.50
2019-03-24T20:53:30.886Z,7.50
2019-03-24T20:55:34.662Z,7.40
2019-03-24T20:57:38.210Z,7.40
2019-03-24T20:59:41.802Z,7.40
2019-03-24T21:01:45.468Z,7.30
2019-03-24T21:03:49.144Z,7.30
2019-03-24T21:05:52.884Z,7.30
2019-03-24T21:07:56.537Z,7.30
2019-03-24T21:10:00.339Z,7.20
2019-03-24T21:12:04.110Z,7.20
2019-03-24T21:14:07.766Z,7.20
2019-03-24T21:16:11.691Z,7.10
2019-03-24T21:18:15.572Z,7.00
2019-03-24T21:20:19.449Z,7.00
2019-03-24T21:22:23.419Z,6.90
2019-03-24T21:24:27.082Z,6.90
2019-03-24T21:26:30.724Z,6.80
2019-03-24T21:28:34.357Z,6.80
2019-03-24T21:30:39.897Z,6.80
2019-03-24T21:32:43.596Z,6.70
2019-03-24T21:34:47.187Z,6.70
2019-03-24T21:36:51.065Z,6.70
2019-03-24T21:38:54.640Z,6.60
2019-03-24T21:40:58.305Z,6.60
2019-03-24T21:43:02.024Z,6.60
2019-03-24T21:45:07.604Z,6.50
2019-03-24T21:47:12.229Z,6.50
2019-03-24T21:49:15.869Z,6.50
2019-03-24T21:51:19.575Z,6.40
2019-03-24T21:53:23.215Z,6.40
2019-03-24T21:55:26.822Z,6.40
2019-03-24T21:57:30.534Z,6.40
2019-03-24T21:59:34.187Z,6.40
2019-03-24T22:01:37.890Z,6.30
2019-03-24T22:03:41.666Z,6.30
2019-03-24T22:05:45.345Z,6.30
2019-03-24T22:07:49.147Z,6.20
2019-03-24T22:09:52.871Z,6.20
2019-03-24T22:11:56.552Z,6.10
2019-03-24T22:14:00.131Z,6.10
2019-03-24T22:16:03.724Z,6.10
2019-03-24T22:18:07.486Z,6.00
2019-03-24T22:20:11.209Z,6.00
2019-03-24T22:22:14.918Z,6.00
2019-03-24T22:24:18.642Z,6.00
2019-03-24T22:26:22.369Z,6.00
2019-03-24T22:28:25.968Z,5.90
2019-03-24T22:30:29.688Z,5.80
2019-03-24T22:32:33.300Z,5.80
2019-03-24T22:34:37.033Z,5.80
2019-03-24T22:36:40.700Z,5.70
2019-03-24T22:38:44.320Z,5.70
2019-03-24T22:40:47.964Z,5.80
2019-03-24T22:42:51.824Z,5.70
2019-03-24T22:44:55.483Z,5.60
2019-03-24T22:46:59.063Z,5.70
2019-03-24T22:49:02.684Z,5.60
2019-03-24T22:51:06.353Z,5.60
2019-03-24T22:53:10.052Z,5.50
2019-03-24T22:55:14.025Z,5.50
2019-03-24T22:57:17.597Z,5.50
2019-03-24T22:59:21.244Z,5.40
2019-03-24T23:01:25.161Z,5.40
2019-03-24T23:03:28.919Z,5.40
2019-03-24T23:05:32.638Z,5.30
2019-03-24T23:07:36.292Z,5.30
2019-03-24T23:09:39.971Z,5.20
2019-03-24T23:11:43.554Z,5.20
2019-03-24T23:13:47.252Z,5.20
2019-03-24T23:15:50.919Z,5.10
2019-03-24T23:17:54.700Z,5.10
2019-03-24T23:19:58.733Z,5.10
2019-03-24T23:22:02.482Z,5.00
2019-03-24T23:24:14.815Z,5.00
2019-03-24T23:26:11.512Z,4.90
2019-03-24T23:28:15.240Z,4.90
2019-03-24T23:30:19.350Z,4.90
2019-03-24T23:32:23.014Z,4.80
2019-03-24T23:34:26.718Z,4.80
2019-03-24T23:36:30.371Z,4.80
2019-03-24T23:38:33.956Z,4.80
2019-03-24T23:40:37.715Z,4.80
2019-03-24T23:42:41.403Z,4.70
2019-03-24T23:44:45.247Z,4.70
2019-03-24T23:46:48.994Z,4.70
2019-03-24T23:48:52.703Z,4.70
2019-03-24T23:50:56.424Z,4.60
2019-03-24T23:53:00.060Z,4.60
2019-03-24T23:55:04.113Z,4.60
2019-03-24T23:57:07.781Z,4.50
2019-03-24T23:59:11.433Z,4.50
